Torreón, México

3:01 PM CDT en Septiembre 20, 2014 (GMT -0500)
Torreon International | Change Station
CLOSE
Current Station
Aeropuerto
Location: Torreon,
Altura: 3688 ft
Estaciones meteorológicas cercanas

Alt 3688 ft 25.53 °N, 103.45 °W | Updated 15 minutes ago

Mostly Cloudy
Muy nublado
84 ° F
Sensación térmica 86 ° F
N
0
Viento Variable Viento desde Norte

Hoy
Alta -- | Baja -- ° F
--% Posibilidad de precipitaciones
Ayer
Alta -- | Baja -- ° F
Precip. -- pul
7:41 AM 7:52 PM
Creciente menguante, 11% visible
Presión 30.02 pul
Visibilidad 10.0 Millas
Nubes Nubes dispersas 3000 ft
Nubes dispersas 12000 ft
Muy nublado 23000 ft
Índice de calor 86 ° F
Punto de rocío 64 ° F
Humedad 51%
Precipitaciones 0.00 pul
Espesor de la nieve No disponible.
UV 6 de una escala de 12
Polen No disponible.
Calidad del aire No disponible.
Flu Activity No disponible.
METAR MMTC 201946Z 00000KT 10SM SCT030CB SCT120 BKN230 29/18 A3002 RMK 8/372 ISOL TCU

More Conditions Fewer Conditions

Presión 30.02 pul
Visibilidad 10.0 Millas
Nubes Nubes dispersas 3000 ft
Nubes dispersas 12000 ft
Muy nublado 23000 ft
Índice de calor 86 ° F
Punto de rocío 64 ° F
Humedad 51%
Precipitaciones 0.00 pul
Espesor de la nieve No disponible.
UV 6 de una escala de 12
Polen No disponible.
Calidad del aire No disponible.
Flu Activity No disponible.
METAR MMTC 201946Z 00000KT 10SM SCT030CB SCT120 BKN230 29/18 A3002 RMK 8/372 ISOL TCU

More Conditions Fewer Conditions

10-Day Weather Forecast

Almanac

Astronomía

Sep. 20, 2014 Salida Puesta
Hora real 7:41 AM CDT 7:52 PM CDT
Crepúsculo civil 7:18 AM CDT 8:15 PM CDT
Crepúsculo náutico 6:51 AM CDT 8:41 PM CDT
Crepúsculo astronómico 6:25 AM CDT 9:08 PM CDT
Luna 4:38 AM CDT 5:43 PM CDT
Horas de luz 12h 56m
Horas de luz
12h 10m
Tomorrow will be 1m 29s shorter.
Creciente menguante, 11% of the Moon is Illuminated
Hoy
Creciente menguante
Sep 24
Nueva
Oct 1
Cuarto creciente
Oct 8
Luna llena
Oct 15
Cuarto menguante

Extremos de hoy

Máximos del país Bajas del país

Community

WunderPhotos

Upload Photos

1,754,927 ¡fotos cargadas!

WunderBlogs® & News

Nearby

Calidad del aire

Not available.

Grosos de nieve

Not available.

Actividad de terremotos

Ciudad Distance Mag. Tiempo y dato
No hay informes recientes de la actividad sísmica.
Magnitud mínima muestra es 2,5.

Temperaturas de aguas costeras

Lugar Temperatura
Sin partes meteorológicos de las estaciones

Estaciones meteorológicas cercanas